sensor_id;sensor_type;location;lat;lon;timestamp;P1;durP1;ratioP1;P2;durP2;ratioP2
71141;SDS011;58808;59.366;17.970;2022-12-26T00:01:38;4.28;;;3.22;;
71141;SDS011;58808;59.366;17.970;2022-12-26T00:04:06;4.95;;;3.13;;
71141;SDS011;58808;59.366;17.970;2022-12-26T00:06:32;5.65;;;3.58;;
71141;SDS011;58808;59.366;17.970;2022-12-26T00:09:00;7.95;;;2.58;;
71141;SDS011;58808;59.366;17.970;2022-12-26T00:11:27;5.25;;;3.47;;
71141;SDS011;58808;59.366;17.970;2022-12-26T00:13:54;6.03;;;3.75;;
71141;SDS011;58808;59.366;17.970;2022-12-26T00:16:20;5.15;;;3.70;;
71141;SDS011;58808;59.366;17.970;2022-12-26T00:18:46;4.50;;;3.08;;
71141;SDS011;58808;59.366;17.970;2022-12-26T00:21:13;5.28;;;3.53;;
71141;SDS011;58808;59.366;17.970;2022-12-26T00:23:40;4.53;;;2.70;;
71141;SDS011;58808;59.366;17.970;2022-12-26T00:26:07;8.65;;;3.83;;
71141;SDS011;58808;59.366;17.970;2022-12-26T00:28:35;3.75;;;2.97;;
71141;SDS011;58808;59.366;17.970;2022-12-26T00:31:02;5.65;;;3.50;;
71141;SDS011;58808;59.366;17.970;2022-12-26T00:33:29;4.57;;;2.88;;
71141;SDS011;58808;59.366;17.970;2022-12-26T00:35:59;4.70;;;2.88;;
71141;SDS011;58808;59.366;17.970;2022-12-26T00:38:28;4.03;;;2.25;;
71141;SDS011;58808;59.366;17.970;2022-12-26T00:40:54;5.05;;;4.10;;
71141;SDS011;58808;59.366;17.970;2022-12-26T00:43:20;5.65;;;3.60;;
71141;SDS011;58808;59.366;17.970;2022-12-26T00:45:48;6.68;;;3.90;;
71141;SDS011;58808;59.366;17.970;2022-12-26T00:48:14;8.32;;;4.45;;
71141;SDS011;58808;59.366;17.970;2022-12-26T00:50:40;6.65;;;3.75;;
71141;SDS011;58808;59.366;17.970;2022-12-26T00:53:06;6.47;;;3.72;;
71141;SDS011;58808;59.366;17.970;2022-12-26T00:55:31;7.53;;;4.00;;
71141;SDS011;58808;59.366;17.970;2022-12-26T00:57:57;8.50;;;4.63;;
71141;SDS011;58808;59.366;17.970;2022-12-26T01:00:23;7.15;;;3.40;;
71141;SDS011;58808;59.366;17.970;2022-12-26T01:02:48;8.85;;;4.85;;
71141;SDS011;58808;59.366;17.970;2022-12-26T01:05:15;6.60;;;4.20;;
71141;SDS011;58808;59.366;17.970;2022-12-26T01:07:40;6.47;;;4.13;;
71141;SDS011;58808;59.366;17.970;2022-12-26T01:10:07;5.47;;;3.33;;
71141;SDS011;58808;59.366;17.970;2022-12-26T01:12:35;8.52;;;4.05;;
71141;SDS011;58808;59.366;17.970;2022-12-26T01:15:00;9.20;;;4.18;;
71141;SDS011;58808;59.366;17.970;2022-12-26T01:17:26;5.82;;;3.97;;
71141;SDS011;58808;59.366;17.970;2022-12-26T01:19:53;6.15;;;3.70;;
71141;SDS011;58808;59.366;17.970;2022-12-26T01:22:19;8.27;;;4.22;;
71141;SDS011;58808;59.366;17.970;2022-12-26T01:24:45;10.70;;;4.47;;
71141;SDS011;58808;59.366;17.970;2022-12-26T01:27:11;6.85;;;3.70;;
71141;SDS011;58808;59.366;17.970;2022-12-26T01:29:37;6.63;;;4.00;;
71141;SDS011;58808;59.366;17.970;2022-12-26T01:32:03;7.38;;;4.30;;
71141;SDS011;58808;59.366;17.970;2022-12-26T01:34:29;6.93;;;5.20;;
71141;SDS011;58808;59.366;17.970;2022-12-26T01:36:55;7.95;;;3.88;;
71141;SDS011;58808;59.366;17.970;2022-12-26T01:39:21;10.27;;;4.30;;
71141;SDS011;58808;59.366;17.970;2022-12-26T01:41:47;6.70;;;4.45;;
71141;SDS011;58808;59.366;17.970;2022-12-26T01:47:16;4.38;;;2.88;;
71141;SDS011;58808;59.366;17.970;2022-12-26T01:49:44;6.57;;;4.07;;
71141;SDS011;58808;59.366;17.970;2022-12-26T01:52:24;6.00;;;4.78;;
71141;SDS011;58808;59.366;17.970;2022-12-26T01:55:07;9.15;;;4.03;;
71141;SDS011;58808;59.366;17.970;2022-12-26T01:57:39;6.95;;;3.95;;
71141;SDS011;58808;59.366;17.970;2022-12-26T02:00:08;4.90;;;3.17;;
71141;SDS011;58808;59.366;17.970;2022-12-26T02:02:34;11.05;;;4.35;;
71141;SDS011;58808;59.366;17.970;2022-12-26T02:05:22;9.70;;;4.70;;
71141;SDS011;58808;59.366;17.970;2022-12-26T02:07:58;5.50;;;4.00;;
71141;SDS011;58808;59.366;17.970;2022-12-26T02:10:38;5.13;;;4.28;;
71141;SDS011;58808;59.366;17.970;2022-12-26T02:13:17;9.60;;;3.92;;
71141;SDS011;58808;59.366;17.970;2022-12-26T02:15:43;6.82;;;4.00;;
71141;SDS011;58808;59.366;17.970;2022-12-26T02:18:09;7.75;;;4.70;;
71141;SDS011;58808;59.366;17.970;2022-12-26T02:20:48;7.72;;;4.32;;
71141;SDS011;58808;59.366;17.970;2022-12-26T02:34:38;5.90;;;3.63;;
71141;SDS011;58808;59.366;17.970;2022-12-26T02:43:12;6.30;;;4.45;;
71141;SDS011;58808;59.366;17.970;2022-12-26T02:46:04;4.95;;;3.38;;
71141;SDS011;58808;59.366;17.970;2022-12-26T02:49:12;6.75;;;3.97;;
71141;SDS011;58808;59.366;17.970;2022-12-26T02:51:47;7.65;;;4.75;;
71141;SDS011;58808;59.366;17.970;2022-12-26T02:55:06;5.93;;;3.53;;
71141;SDS011;58808;59.366;17.970;2022-12-26T02:58:03;8.38;;;3.80;;
71141;SDS011;58808;59.366;17.970;2022-12-26T03:00:51;5.13;;;3.42;;
71141;SDS011;58808;59.366;17.970;2022-12-26T03:03:40;5.60;;;3.60;;
71141;SDS011;58808;59.366;17.970;2022-12-26T03:06:29;6.18;;;3.38;;
71141;SDS011;58808;59.366;17.970;2022-12-26T03:12:21;3.85;;;2.95;;
71141;SDS011;58808;59.366;17.970;2022-12-26T03:15:25;6.68;;;4.05;;
71141;SDS011;58808;59.366;17.970;2022-12-26T03:17:57;8.02;;;3.67;;
71141;SDS011;58808;59.366;17.970;2022-12-26T03:20:34;7.35;;;3.90;;
71141;SDS011;58808;59.366;17.970;2022-12-26T03:23:04;5.65;;;4.03;;
71141;SDS011;58808;59.366;17.970;2022-12-26T03:25:52;6.63;;;4.13;;
71141;SDS011;58808;59.366;17.970;2022-12-26T03:28:40;6.07;;;3.42;;
71141;SDS011;58808;59.366;17.970;2022-12-26T03:31:11;6.10;;;4.07;;
71141;SDS011;58808;59.366;17.970;2022-12-26T03:33:39;4.55;;;3.15;;
71141;SDS011;58808;59.366;17.970;2022-12-26T03:39:24;10.02;;;3.47;;
71141;SDS011;58808;59.366;17.970;2022-12-26T03:42:22;5.25;;;3.45;;
71141;SDS011;58808;59.366;17.970;2022-12-26T03:45:38;9.35;;;4.22;;
71141;SDS011;58808;59.366;17.970;2022-12-26T03:48:40;10.05;;;5.05;;
71141;SDS011;58808;59.366;17.970;2022-12-26T03:58:34;7.43;;;3.70;;
71141;SDS011;58808;59.366;17.970;2022-12-26T04:01:29;4.38;;;3.05;;
71141;SDS011;58808;59.366;17.970;2022-12-26T04:04:17;4.82;;;3.67;;
71141;SDS011;58808;59.366;17.970;2022-12-26T04:10:18;6.03;;;3.45;;
71141;SDS011;58808;59.366;17.970;2022-12-26T04:13:27;5.85;;;4.22;;
71141;SDS011;58808;59.366;17.970;2022-12-26T04:16:27;5.95;;;3.67;;
71141;SDS011;58808;59.366;17.970;2022-12-26T04:19:19;6.63;;;3.95;;
71141;SDS011;58808;59.366;17.970;2022-12-26T04:30:32;4.50;;;3.42;;
71141;SDS011;58808;59.366;17.970;2022-12-26T04:36:08;4.97;;;3.63;;
71141;SDS011;58808;59.366;17.970;2022-12-26T04:38:58;6.55;;;4.53;;
71141;SDS011;58808;59.366;17.970;2022-12-26T04:41:46;6.85;;;3.70;;
71141;SDS011;58808;59.366;17.970;2022-12-26T04:44:33;8.70;;;4.82;;
71141;SDS011;58808;59.366;17.970;2022-12-26T04:47:00;5.85;;;3.45;;
71141;SDS011;58808;59.366;17.970;2022-12-26T04:49:25;10.68;;;4.40;;
71141;SDS011;58808;59.366;17.970;2022-12-26T04:52:11;6.22;;;3.92;;
71141;SDS011;58808;59.366;17.970;2022-12-26T04:54:39;6.57;;;4.28;;
71141;SDS011;58808;59.366;17.970;2022-12-26T04:57:06;6.85;;;3.92;;
71141;SDS011;58808;59.366;17.970;2022-12-26T04:59:32;5.32;;;3.78;;
71141;SDS011;58808;59.366;17.970;2022-12-26T05:01:58;7.65;;;3.75;;
71141;SDS011;58808;59.366;17.970;2022-12-26T05:04:42;6.17;;;3.37;;
71141;SDS011;58808;59.366;17.970;2022-12-26T05:07:28;5.38;;;3.35;;
71141;SDS011;58808;59.366;17.970;2022-12-26T05:10:16;5.15;;;3.50;;
71141;SDS011;58808;59.366;17.970;2022-12-26T05:12:49;4.72;;;3.20;;
71141;SDS011;58808;59.366;17.970;2022-12-26T05:15:16;5.05;;;3.38;;
71141;SDS011;58808;59.366;17.970;2022-12-26T05:17:42;5.25;;;3.10;;
71141;SDS011;58808;59.366;17.970;2022-12-26T05:20:26;5.60;;;2.72;;
71141;SDS011;58808;59.366;17.970;2022-12-26T05:23:15;4.20;;;3.13;;
71141;SDS011;58808;59.366;17.970;2022-12-26T05:26:02;4.85;;;2.50;;
71141;SDS011;58808;59.366;17.970;2022-12-26T05:28:49;5.28;;;2.80;;
71141;SDS011;58808;59.366;17.970;2022-12-26T05:31:22;3.42;;;2.70;;
71141;SDS011;58808;59.366;17.970;2022-12-26T05:33:47;4.30;;;2.67;;
71141;SDS011;58808;59.366;17.970;2022-12-26T05:36:36;4.38;;;2.83;;
71141;SDS011;58808;59.366;17.970;2022-12-26T05:39:05;3.83;;;2.72;;
71141;SDS011;58808;59.366;17.970;2022-12-26T05:41:32;3.70;;;2.60;;
71141;SDS011;58808;59.366;17.970;2022-12-26T05:43:57;5.38;;;3.22;;
71141;SDS011;58808;59.366;17.970;2022-12-26T05:46:23;4.63;;;3.25;;
71141;SDS011;58808;59.366;17.970;2022-12-26T05:48:49;6.22;;;3.53;;
71141;SDS011;58808;59.366;17.970;2022-12-26T05:51:14;5.63;;;3.53;;
71141;SDS011;58808;59.366;17.970;2022-12-26T05:53:40;6.78;;;3.53;;
71141;SDS011;58808;59.366;17.970;2022-12-26T05:56:10;5.95;;;3.72;;
71141;SDS011;58808;59.366;17.970;2022-12-26T05:58:37;3.63;;;2.72;;
71141;SDS011;58808;59.366;17.970;2022-12-26T06:01:04;5.43;;;3.83;;
71141;SDS011;58808;59.366;17.970;2022-12-26T06:03:35;5.13;;;3.28;;
71141;SDS011;58808;59.366;17.970;2022-12-26T06:06:01;8.60;;;4.85;;
71141;SDS011;58808;59.366;17.970;2022-12-26T06:08:27;6.88;;;4.05;;
71141;SDS011;58808;59.366;17.970;2022-12-26T06:10:53;4.82;;;3.35;;
71141;SDS011;58808;59.366;17.970;2022-12-26T06:13:19;5.28;;;4.10;;
71141;SDS011;58808;59.366;17.970;2022-12-26T06:15:44;5.72;;;4.63;;
71141;SDS011;58808;59.366;17.970;2022-12-26T06:18:10;5.82;;;4.25;;
71141;SDS011;58808;59.366;17.970;2022-12-26T06:20:39;9.13;;;5.32;;
71141;SDS011;58808;59.366;17.970;2022-12-26T06:23:05;5.65;;;3.70;;
71141;SDS011;58808;59.366;17.970;2022-12-26T06:25:30;8.25;;;4.43;;
71141;SDS011;58808;59.366;17.970;2022-12-26T06:27:56;10.93;;;4.70;;
71141;SDS011;58808;59.366;17.970;2022-12-26T06:30:22;6.35;;;4.60;;
71141;SDS011;58808;59.366;17.970;2022-12-26T06:32:48;3.95;;;2.70;;
71141;SDS011;58808;59.366;17.970;2022-12-26T06:35:14;7.50;;;4.20;;
71141;SDS011;58808;59.366;17.970;2022-12-26T06:37:39;7.53;;;4.38;;
71141;SDS011;58808;59.366;17.970;2022-12-26T06:40:05;8.48;;;5.03;;
71141;SDS011;58808;59.366;17.970;2022-12-26T06:42:31;4.47;;;3.25;;
71141;SDS011;58808;59.366;17.970;2022-12-26T06:44:57;8.20;;;4.50;;
71141;SDS011;58808;59.366;17.970;2022-12-26T06:47:23;6.78;;;3.92;;
71141;SDS011;58808;59.366;17.970;2022-12-26T06:49:48;6.43;;;4.53;;
71141;SDS011;58808;59.366;17.970;2022-12-26T06:52:14;7.63;;;4.30;;
71141;SDS011;58808;59.366;17.970;2022-12-26T06:54:40;8.20;;;3.75;;
71141;SDS011;58808;59.366;17.970;2022-12-26T06:57:05;7.07;;;4.25;;
71141;SDS011;58808;59.366;17.970;2022-12-26T06:59:31;7.57;;;3.60;;
71141;SDS011;58808;59.366;17.970;2022-12-26T07:01:57;4.47;;;3.17;;
71141;SDS011;58808;59.366;17.970;2022-12-26T07:04:23;6.13;;;3.78;;
71141;SDS011;58808;59.366;17.970;2022-12-26T07:06:49;5.20;;;3.88;;
71141;SDS011;58808;59.366;17.970;2022-12-26T07:09:15;5.03;;;3.40;;
71141;SDS011;58808;59.366;17.970;2022-12-26T07:11:43;5.47;;;3.75;;
71141;SDS011;58808;59.366;17.970;2022-12-26T07:14:11;6.05;;;3.30;;
71141;SDS011;58808;59.366;17.970;2022-12-26T07:16:38;6.10;;;3.30;;
71141;SDS011;58808;59.366;17.970;2022-12-26T07:19:05;5.22;;;2.80;;
71141;SDS011;58808;59.366;17.970;2022-12-26T07:21:31;6.47;;;3.00;;
71141;SDS011;58808;59.366;17.970;2022-12-26T07:23:57;6.07;;;2.97;;
71141;SDS011;58808;59.366;17.970;2022-12-26T07:26:23;3.92;;;2.75;;
71141;SDS011;58808;59.366;17.970;2022-12-26T07:28:53;4.32;;;3.08;;
71141;SDS011;58808;59.366;17.970;2022-12-26T07:31:20;4.40;;;3.13;;
71141;SDS011;58808;59.366;17.970;2022-12-26T07:33:46;5.90;;;3.17;;
71141;SDS011;58808;59.366;17.970;2022-12-26T07:36:13;5.30;;;3.17;;
71141;SDS011;58808;59.366;17.970;2022-12-26T07:38:38;3.60;;;2.88;;
71141;SDS011;58808;59.366;17.970;2022-12-26T07:41:04;3.30;;;2.80;;
71141;SDS011;58808;59.366;17.970;2022-12-26T07:43:50;6.20;;;2.92;;
71141;SDS011;58808;59.366;17.970;2022-12-26T07:46:16;4.53;;;3.10;;
71141;SDS011;58808;59.366;17.970;2022-12-26T07:48:42;4.65;;;2.80;;
71141;SDS011;58808;59.366;17.970;2022-12-26T07:51:07;6.00;;;3.22;;
71141;SDS011;58808;59.366;17.970;2022-12-26T07:53:33;4.55;;;2.72;;
71141;SDS011;58808;59.366;17.970;2022-12-26T07:55:59;5.13;;;2.55;;
71141;SDS011;58808;59.366;17.970;2022-12-26T07:58:25;3.78;;;2.95;;
71141;SDS011;58808;59.366;17.970;2022-12-26T08:00:51;4.25;;;2.50;;
71141;SDS011;58808;59.366;17.970;2022-12-26T08:03:17;5.43;;;2.80;;
71141;SDS011;58808;59.366;17.970;2022-12-26T08:05:47;7.40;;;3.30;;
71141;SDS011;58808;59.366;17.970;2022-12-26T08:08:14;6.18;;;2.58;;
71141;SDS011;58808;59.366;17.970;2022-12-26T08:10:40;3.38;;;2.40;;
71141;SDS011;58808;59.366;17.970;2022-12-26T08:13:05;3.50;;;2.38;;
71141;SDS011;58808;59.366;17.970;2022-12-26T08:15:31;8.02;;;3.03;;
71141;SDS011;58808;59.366;17.970;2022-12-26T08:17:58;6.20;;;2.65;;
71141;SDS011;58808;59.366;17.970;2022-12-26T08:20:23;5.32;;;2.90;;
71141;SDS011;58808;59.366;17.970;2022-12-26T08:22:49;3.70;;;2.50;;
71141;SDS011;58808;59.366;17.970;2022-12-26T08:25:15;5.75;;;2.53;;
71141;SDS011;58808;59.366;17.970;2022-12-26T08:27:41;4.13;;;2.95;;
71141;SDS011;58808;59.366;17.970;2022-12-26T08:30:06;7.32;;;2.78;;
71141;SDS011;58808;59.366;17.970;2022-12-26T08:32:33;6.35;;;3.33;;
71141;SDS011;58808;59.366;17.970;2022-12-26T08:34:58;5.72;;;2.78;;
71141;SDS011;58808;59.366;17.970;2022-12-26T08:37:24;6.60;;;2.60;;
71141;SDS011;58808;59.366;17.970;2022-12-26T08:39:50;4.22;;;3.00;;
71141;SDS011;58808;59.366;17.970;2022-12-26T08:42:19;3.78;;;2.65;;
71141;SDS011;58808;59.366;17.970;2022-12-26T08:44:45;4.95;;;2.97;;
71141;SDS011;58808;59.366;17.970;2022-12-26T08:47:12;5.82;;;3.53;;
71141;SDS011;58808;59.366;17.970;2022-12-26T08:49:38;5.18;;;3.33;;
71141;SDS011;58808;59.366;17.970;2022-12-26T08:52:04;6.30;;;3.10;;
71141;SDS011;58808;59.366;17.970;2022-12-26T08:54:30;5.40;;;3.30;;
71141;SDS011;58808;59.366;17.970;2022-12-26T08:56:56;8.27;;;4.07;;
71141;SDS011;58808;59.366;17.970;2022-12-26T08:59:21;5.78;;;3.45;;
71141;SDS011;58808;59.366;17.970;2022-12-26T09:01:47;9.18;;;3.90;;
71141;SDS011;58808;59.366;17.970;2022-12-26T09:04:13;7.45;;;3.85;;
71141;SDS011;58808;59.366;17.970;2022-12-26T09:06:39;6.78;;;4.03;;
71141;SDS011;58808;59.366;17.970;2022-12-26T09:09:07;8.10;;;3.55;;
71141;SDS011;58808;59.366;17.970;2022-12-26T09:11:35;5.32;;;3.70;;
71141;SDS011;58808;59.366;17.970;2022-12-26T09:14:02;5.95;;;3.58;;
71141;SDS011;58808;59.366;17.970;2022-12-26T09:16:30;6.80;;;3.22;;
71141;SDS011;58808;59.366;17.970;2022-12-26T09:19:00;7.57;;;3.47;;
71141;SDS011;58808;59.366;17.970;2022-12-26T09:21:27;4.45;;;2.90;;
71141;SDS011;58808;59.366;17.970;2022-12-26T09:23:57;6.35;;;3.15;;
71141;SDS011;58808;59.366;17.970;2022-12-26T09:26:24;4.45;;;2.65;;
71141;SDS011;58808;59.366;17.970;2022-12-26T09:28:51;4.25;;;3.17;;
71141;SDS011;58808;59.366;17.970;2022-12-26T09:31:18;35.45;;;32.75;;
71141;SDS011;58808;59.366;17.970;2022-12-26T09:33:46;4.40;;;3.20;;
71141;SDS011;58808;59.366;17.970;2022-12-26T09:36:13;4.80;;;3.33;;
71141;SDS011;58808;59.366;17.970;2022-12-26T09:38:41;6.35;;;4.22;;
71141;SDS011;58808;59.366;17.970;2022-12-26T09:43:59;8.63;;;4.28;;
71141;SDS011;58808;59.366;17.970;2022-12-26T09:49:43;8.95;;;4.25;;
71141;SDS011;58808;59.366;17.970;2022-12-26T09:52:39;6.22;;;4.03;;
71141;SDS011;58808;59.366;17.970;2022-12-26T09:55:25;5.70;;;4.05;;
71141;SDS011;58808;59.366;17.970;2022-12-26T09:57:56;6.80;;;3.97;;
71141;SDS011;58808;59.366;17.970;2022-12-26T10:00:27;8.65;;;5.35;;
71141;SDS011;58808;59.366;17.970;2022-12-26T10:02:58;19.52;;;11.65;;
71141;SDS011;58808;59.366;17.970;2022-12-26T10:05:25;9.07;;;5.68;;
71141;SDS011;58808;59.366;17.970;2022-12-26T10:08:18;6.10;;;4.82;;
71141;SDS011;58808;59.366;17.970;2022-12-26T10:10:45;9.82;;;5.78;;
71141;SDS011;58808;59.366;17.970;2022-12-26T10:15:50;9.07;;;5.28;;
71141;SDS011;58808;59.366;17.970;2022-12-26T10:18:41;5.90;;;4.03;;
71141;SDS011;58808;59.366;17.970;2022-12-26T10:24:26;32.05;;;15.88;;
71141;SDS011;58808;59.366;17.970;2022-12-26T10:26:56;13.70;;;8.82;;
71141;SDS011;58808;59.366;17.970;2022-12-26T10:29:33;9.82;;;5.38;;
71141;SDS011;58808;59.366;17.970;2022-12-26T10:32:24;11.48;;;6.40;;
71141;SDS011;58808;59.366;17.970;2022-12-26T10:34:57;7.78;;;5.78;;
71141;SDS011;58808;59.366;17.970;2022-12-26T10:39:53;12.32;;;6.53;;
71141;SDS011;58808;59.366;17.970;2022-12-26T10:42:33;16.65;;;6.97;;
71141;SDS011;58808;59.366;17.970;2022-12-26T10:45:06;14.40;;;7.43;;
71141;SDS011;58808;59.366;17.970;2022-12-26T10:47:40;15.07;;;10.13;;
71141;SDS011;58808;59.366;17.970;2022-12-26T10:50:17;19.75;;;9.23;;
71141;SDS011;58808;59.366;17.970;2022-12-26T10:55:18;9.40;;;6.03;;
71141;SDS011;58808;59.366;17.970;2022-12-26T10:57:49;14.13;;;9.55;;
71141;SDS011;58808;59.366;17.970;2022-12-26T11:00:26;19.00;;;11.20;;
71141;SDS011;58808;59.366;17.970;2022-12-26T11:03:03;17.27;;;9.82;;
71141;SDS011;58808;59.366;17.970;2022-12-26T11:05:29;16.20;;;8.57;;
71141;SDS011;58808;59.366;17.970;2022-12-26T11:08:04;12.35;;;6.68;;
71141;SDS011;58808;59.366;17.970;2022-12-26T11:10:38;14.95;;;8.57;;
71141;SDS011;58808;59.366;17.970;2022-12-26T11:13:17;15.85;;;9.10;;
71141;SDS011;58808;59.366;17.970;2022-12-26T11:15:47;16.80;;;8.18;;
71141;SDS011;58808;59.366;17.970;2022-12-26T11:20:41;18.17;;;10.43;;
71141;SDS011;58808;59.366;17.970;2022-12-26T11:23:20;22.35;;;12.68;;
71141;SDS011;58808;59.366;17.970;2022-12-26T11:26:00;18.10;;;8.57;;
71141;SDS011;58808;59.366;17.970;2022-12-26T11:28:33;14.52;;;8.52;;
71141;SDS011;58808;59.366;17.970;2022-12-26T11:31:00;17.27;;;8.70;;
71141;SDS011;58808;59.366;17.970;2022-12-26T11:33:33;15.68;;;8.57;;
71141;SDS011;58808;59.366;17.970;2022-12-26T11:38:43;23.20;;;8.90;;
71141;SDS011;58808;59.366;17.970;2022-12-26T11:41:17;15.68;;;7.93;;
71141;SDS011;58808;59.366;17.970;2022-12-26T11:44:01;11.98;;;7.85;;
71141;SDS011;58808;59.366;17.970;2022-12-26T11:46:35;16.77;;;8.23;;
71141;SDS011;58808;59.366;17.970;2022-12-26T11:49:26;11.82;;;7.95;;
71141;SDS011;58808;59.366;17.970;2022-12-26T11:51:59;16.77;;;8.60;;
71141;SDS011;58808;59.366;17.970;2022-12-26T11:54:48;19.25;;;7.97;;
71141;SDS011;58808;59.366;17.970;2022-12-26T11:57:22;22.23;;;12.90;;
71141;SDS011;58808;59.366;17.970;2022-12-26T11:59:53;12.98;;;7.03;;
71141;SDS011;58808;59.366;17.970;2022-12-26T12:02:37;13.95;;;7.45;;
71141;SDS011;58808;59.366;17.970;2022-12-26T12:05:11;11.25;;;7.13;;
71141;SDS011;58808;59.366;17.970;2022-12-26T12:13:24;10.10;;;5.70;;
71141;SDS011;58808;59.366;17.970;2022-12-26T12:18:56;13.60;;;7.65;;
71141;SDS011;58808;59.366;17.970;2022-12-26T12:24:41;14.32;;;7.85;;
71141;SDS011;58808;59.366;17.970;2022-12-26T12:27:44;13.70;;;7.70;;
71141;SDS011;58808;59.366;17.970;2022-12-26T12:30:19;11.82;;;5.65;;
71141;SDS011;58808;59.366;17.970;2022-12-26T12:41:34;13.63;;;6.97;;
71141;SDS011;58808;59.366;17.970;2022-12-26T12:44:26;15.45;;;7.78;;
71141;SDS011;58808;59.366;17.970;2022-12-26T12:47:22;10.30;;;6.80;;
71141;SDS011;58808;59.366;17.970;2022-12-26T12:58:25;14.32;;;7.32;;
71141;SDS011;58808;59.366;17.970;2022-12-26T13:01:09;16.88;;;7.13;;
71141;SDS011;58808;59.366;17.970;2022-12-26T13:03:44;11.32;;;7.05;;
71141;SDS011;58808;59.366;17.970;2022-12-26T13:06:24;19.23;;;11.48;;
71141;SDS011;58808;59.366;17.970;2022-12-26T13:09:19;10.63;;;5.82;;
71141;SDS011;58808;59.366;17.970;2022-12-26T13:11:50;14.68;;;7.47;;
71141;SDS011;58808;59.366;17.970;2022-12-26T13:14:22;12.60;;;7.60;;
71141;SDS011;58808;59.366;17.970;2022-12-26T13:16:56;15.70;;;7.70;;
71141;SDS011;58808;59.366;17.970;2022-12-26T13:22:05;30.17;;;13.85;;
71141;SDS011;58808;59.366;17.970;2022-12-26T13:24:42;11.00;;;5.78;;
71141;SDS011;58808;59.366;17.970;2022-12-26T13:27:26;7.50;;;5.03;;
71141;SDS011;58808;59.366;17.970;2022-12-26T13:30:00;13.27;;;6.30;;
71141;SDS011;58808;59.366;17.970;2022-12-26T13:34:55;18.55;;;6.53;;
71141;SDS011;58808;59.366;17.970;2022-12-26T13:42:36;13.40;;;6.47;;
71141;SDS011;58808;59.366;17.970;2022-12-26T13:55:50;16.08;;;9.15;;
71141;SDS011;58808;59.366;17.970;2022-12-26T13:58:22;15.82;;;9.68;;
71141;SDS011;58808;59.366;17.970;2022-12-26T14:01:57;13.15;;;5.75;;
71141;SDS011;58808;59.366;17.970;2022-12-26T14:15:55;9.57;;;5.95;;
71141;SDS011;58808;59.366;17.970;2022-12-26T14:21:18;12.82;;;6.13;;
71141;SDS011;58808;59.366;17.970;2022-12-26T14:24:30;11.40;;;5.40;;
71141;SDS011;58808;59.366;17.970;2022-12-26T14:29:32;6.70;;;4.15;;
71141;SDS011;58808;59.366;17.970;2022-12-26T14:44:43;10.35;;;6.70;;
71141;SDS011;58808;59.366;17.970;2022-12-26T14:51:54;13.63;;;7.53;;
71141;SDS011;58808;59.366;17.970;2022-12-26T14:54:52;15.68;;;7.57;;
71141;SDS011;58808;59.366;17.970;2022-12-26T15:05:58;11.05;;;7.28;;
71141;SDS011;58808;59.366;17.970;2022-12-26T15:08:44;16.40;;;6.97;;
71141;SDS011;58808;59.366;17.970;2022-12-26T15:16:48;10.27;;;7.53;;
71141;SDS011;58808;59.366;17.970;2022-12-26T15:25:30;13.15;;;9.10;;
71141;SDS011;58808;59.366;17.970;2022-12-26T15:28:06;16.20;;;9.10;;
71141;SDS011;58808;59.366;17.970;2022-12-26T15:31:05;13.70;;;9.82;;
71141;SDS011;58808;59.366;17.970;2022-12-26T15:45:03;24.45;;;13.32;;
71141;SDS011;58808;59.366;17.970;2022-12-26T15:53:12;16.20;;;10.15;;
71141;SDS011;58808;59.366;17.970;2022-12-26T16:00:59;18.42;;;11.63;;
71141;SDS011;58808;59.366;17.970;2022-12-26T16:06:38;23.30;;;12.57;;
71141;SDS011;58808;59.366;17.970;2022-12-26T16:11:55;19.90;;;11.95;;
71141;SDS011;58808;59.366;17.970;2022-12-26T16:19:40;18.33;;;10.50;;
71141;SDS011;58808;59.366;17.970;2022-12-26T16:22:24;22.80;;;12.02;;
71141;SDS011;58808;59.366;17.970;2022-12-26T16:25:08;23.17;;;11.43;;
71141;SDS011;58808;59.366;17.970;2022-12-26T16:27:37;16.48;;;10.07;;
71141;SDS011;58808;59.366;17.970;2022-12-26T16:30:10;20.92;;;12.15;;
71141;SDS011;58808;59.366;17.970;2022-12-26T16:32:39;16.50;;;11.23;;
71141;SDS011;58808;59.366;17.970;2022-12-26T16:35:14;18.30;;;10.25;;
71141;SDS011;58808;59.366;17.970;2022-12-26T16:37:42;19.17;;;12.07;;
71141;SDS011;58808;59.366;17.970;2022-12-26T16:42:44;23.75;;;12.05;;
71141;SDS011;58808;59.366;17.970;2022-12-26T16:45:23;21.58;;;11.05;;
71141;SDS011;58808;59.366;17.970;2022-12-26T16:47:50;20.25;;;12.50;;
71141;SDS011;58808;59.366;17.970;2022-12-26T16:50:18;18.80;;;11.90;;
71141;SDS011;58808;59.366;17.970;2022-12-26T16:52:46;18.85;;;12.45;;
71141;SDS011;58808;59.366;17.970;2022-12-26T16:57:49;26.25;;;13.23;;
71141;SDS011;58808;59.366;17.970;2022-12-26T17:00:20;21.35;;;11.93;;
71141;SDS011;58808;59.366;17.970;2022-12-26T17:02:48;17.27;;;11.30;;
71141;SDS011;58808;59.366;17.970;2022-12-26T17:05:20;31.10;;;17.80;;
71141;SDS011;58808;59.366;17.970;2022-12-26T17:07:50;38.53;;;21.88;;
71141;SDS011;58808;59.366;17.970;2022-12-26T17:10:20;24.45;;;12.82;;
71141;SDS011;58808;59.366;17.970;2022-12-26T17:12:51;20.45;;;12.30;;
71141;SDS011;58808;59.366;17.970;2022-12-26T17:15:25;15.38;;;9.77;;
71141;SDS011;58808;59.366;17.970;2022-12-26T17:18:27;19.98;;;12.55;;
71141;SDS011;58808;59.366;17.970;2022-12-26T17:21:14;21.27;;;12.38;;
71141;SDS011;58808;59.366;17.970;2022-12-26T17:26:31;22.08;;;12.93;;
71141;SDS011;58808;59.366;17.970;2022-12-26T17:28:58;41.97;;;21.88;;
71141;SDS011;58808;59.366;17.970;2022-12-26T17:34:05;24.10;;;12.80;;
71141;SDS011;58808;59.366;17.970;2022-12-26T17:36:38;20.90;;;10.02;;
71141;SDS011;58808;59.366;17.970;2022-12-26T17:39:23;21.35;;;12.90;;
71141;SDS011;58808;59.366;17.970;2022-12-26T17:41:51;21.98;;;13.40;;
71141;SDS011;58808;59.366;17.970;2022-12-26T17:49:42;21.20;;;11.25;;
71141;SDS011;58808;59.366;17.970;2022-12-26T17:52:08;20.17;;;10.77;;
71141;SDS011;58808;59.366;17.970;2022-12-26T17:54:35;22.98;;;11.93;;
71141;SDS011;58808;59.366;17.970;2022-12-26T17:57:01;22.52;;;12.68;;
71141;SDS011;58808;59.366;17.970;2022-12-26T17:59:27;26.02;;;12.23;;
71141;SDS011;58808;59.366;17.970;2022-12-26T18:01:53;24.05;;;12.77;;
71141;SDS011;58808;59.366;17.970;2022-12-26T18:04:18;24.40;;;12.30;;
71141;SDS011;58808;59.366;17.970;2022-12-26T18:06:44;21.40;;;10.00;;
71141;SDS011;58808;59.366;17.970;2022-12-26T18:09:14;22.30;;;12.73;;
71141;SDS011;58808;59.366;17.970;2022-12-26T18:11:51;25.38;;;14.35;;
71141;SDS011;58808;59.366;17.970;2022-12-26T18:14:18;18.20;;;10.10;;
71141;SDS011;58808;59.366;17.970;2022-12-26T18:16:44;29.88;;;16.63;;
71141;SDS011;58808;59.366;17.970;2022-12-26T18:19:12;19.40;;;11.70;;
71141;SDS011;58808;59.366;17.970;2022-12-26T18:21:40;20.50;;;11.45;;
71141;SDS011;58808;59.366;17.970;2022-12-26T18:24:06;21.65;;;11.15;;
71141;SDS011;58808;59.366;17.970;2022-12-26T18:26:32;17.40;;;9.55;;
71141;SDS011;58808;59.366;17.970;2022-12-26T18:28:58;16.35;;;8.55;;
71141;SDS011;58808;59.366;17.970;2022-12-26T18:31:24;13.75;;;8.85;;
71141;SDS011;58808;59.366;17.970;2022-12-26T18:33:53;20.58;;;10.20;;
71141;SDS011;58808;59.366;17.970;2022-12-26T18:36:20;20.25;;;9.82;;
71141;SDS011;58808;59.366;17.970;2022-12-26T18:38:51;19.90;;;10.77;;
71141;SDS011;58808;59.366;17.970;2022-12-26T18:41:17;18.35;;;9.23;;
71141;SDS011;58808;59.366;17.970;2022-12-26T18:43:44;17.92;;;9.60;;
71141;SDS011;58808;59.366;17.970;2022-12-26T18:46:17;11.45;;;6.78;;